Time;durP1;ratioP1;P1;durP2;ratioP2;P2;SDS_P1;SDS_P2;PMS_P1;PMS_P2;Temp;Humidity;BMP_temperature;BMP_pressure;BME280_temperature;BME280_humidity;BME280_pressure;Samples;Min_cycle;Max_cycle;Signal;HPM_P1;HPM_P2
2021/05/10 00:00:18;;;;;;;5.68;1.95;;;;;;;;;;5015804;28;20438;-84
2021/05/10 00:02:44;;;;;;;2.75;1.35;;;;;;;;;;5019213;28;20054;-84
2021/05/10 00:05:09;;;;;;;3.92;1.67;;;;;;;;;;5022939;28;20489;-84
2021/05/10 00:07:34;;;;;;;5.28;2.10;;;;;;;;;;5022005;28;20017;-84
2021/05/10 00:10:00;;;;;;;3.63;1.67;;;;;;;;;;5015066;28;20014;-84
2021/05/10 00:12:25;;;;;;;2.42;1.77;;;;;;;;;;5019884;28;20030;-84
2021/05/10 00:14:50;;;;;;;3.40;2.05;;;;;;;;;;5023608;28;20049;-84
2021/05/10 00:17:15;;;;;;;3.00;1.80;;;;;;;;;;5022360;28;20026;-84
2021/05/10 00:19:41;;;;;;;3.60;1.70;;;;;;;;;;5010757;28;20022;-84
2021/05/10 00:22:06;;;;;;;4.53;1.90;;;;;;;;;;5014349;28;20033;-84
2021/05/10 00:24:31;;;;;;;7.30;1.98;;;;;;;;;;5020495;28;20511;-84
2021/05/10 00:26:57;;;;;;;5.13;2.10;;;;;;;;;;5021510;28;20097;-84
2021/05/10 00:29:22;;;;;;;4.70;1.75;;;;;;;;;;5013088;28;20061;-84
2021/05/10 00:31:47;;;;;;;2.97;2.00;;;;;;;;;;5012567;28;20018;-84
2021/05/10 00:34:13;;;;;;;4.57;2.38;;;;;;;;;;5012765;28;20029;-84
2021/05/10 00:36:38;;;;;;;4.00;2.50;;;;;;;;;;5007594;28;20022;-84
2021/05/10 00:39:04;;;;;;;6.63;1.85;;;;;;;;;;5020241;28;20029;-84
2021/05/10 00:41:29;;;;;;;5.50;2.10;;;;;;;;;;5011235;28;20022;-85
2021/05/10 00:43:54;;;;;;;3.65;1.88;;;;;;;;;;5013594;28;20034;-84
2021/05/10 00:46:20;;;;;;;2.55;1.58;;;;;;;;;;5011566;28;20038;-84
2021/05/10 00:48:45;;;;;;;2.40;1.73;;;;;;;;;;5016257;28;20025;-84
2021/05/10 00:51:10;;;;;;;6.63;3.15;;;;;;;;;;5018652;28;20548;-84
2021/05/10 00:53:35;;;;;;;4.70;2.25;;;;;;;;;;5020183;28;20022;-84
2021/05/10 00:56:00;;;;;;;4.93;1.70;;;;;;;;;;5022352;28;20025;-84
2021/05/10 00:58:26;;;;;;;6.28;1.90;;;;;;;;;;5017150;28;20030;-84
2021/05/10 01:00:51;;;;;;;3.55;1.65;;;;;;;;;;5010766;28;20071;-84
2021/05/10 01:03:16;;;;;;;2.63;1.80;;;;;;;;;;5017143;28;20025;-84
2021/05/10 01:05:43;;;;;;;5.50;1.98;;;;;;;;;;5019750;28;20029;-84
2021/05/10 01:08:08;;;;;;;3.78;1.95;;;;;;;;;;5016534;28;20053;-84
2021/05/10 01:10:33;;;;;;;3.22;1.67;;;;;;;;;;5014336;28;20041;-84
2021/05/10 01:12:58;;;;;;;2.35;1.70;;;;;;;;;;5021120;28;20013;-84
2021/05/10 01:15:26;;;;;;;3.08;1.58;;;;;;;;;;5014647;28;20040;-84
2021/05/10 01:17:52;;;;;;;5.55;1.80;;;;;;;;;;5014064;28;20026;-84
2021/05/10 01:20:17;;;;;;;6.53;2.00;;;;;;;;;;5020617;28;20032;-84
2021/05/10 01:22:44;;;;;;;2.60;1.83;;;;;;;;;;5012243;28;20029;-84
2021/05/10 01:25:10;;;;;;;6.07;1.85;;;;;;;;;;5011233;28;20030;-84
2021/05/10 01:27:36;;;;;;;3.47;2.08;;;;;;;;;;5011886;28;20032;-84
2021/05/10 01:30:03;;;;;;;3.08;1.83;;;;;;;;;;5026508;28;20025;-84
2021/05/10 01:32:28;;;;;;;3.17;1.95;;;;;;;;;;5012533;28;20087;-84
2021/05/10 01:34:53;;;;;;;2.85;1.80;;;;;;;;;;5025826;28;20468;-84
2021/05/10 01:37:18;;;;;;;4.00;2.00;;;;;;;;;;5017808;28;20029;-84
2021/05/10 01:39:44;;;;;;;2.38;1.83;;;;;;;;;;5011473;28;20026;-84
2021/05/10 01:42:09;;;;;;;4.82;1.73;;;;;;;;;;5015659;28;20087;-84
2021/05/10 01:44:34;;;;;;;3.88;1.70;;;;;;;;;;5011070;28;20388;-84
2021/05/10 01:46:59;;;;;;;2.60;1.33;;;;;;;;;;5019494;28;20105;-84
2021/05/10 01:49:24;;;;;;;2.47;1.48;;;;;;;;;;5022851;28;20028;-84
2021/05/10 01:51:50;;;;;;;4.45;1.83;;;;;;;;;;5023271;28;20022;-84
2021/05/10 01:54:15;;;;;;;2.00;1.50;;;;;;;;;;5030490;28;20030;-84
2021/05/10 01:56:40;;;;;;;2.15;1.50;;;;;;;;;;5023831;28;20030;-85
2021/05/10 01:59:07;;;;;;;4.22;1.70;;;;;;;;;;5009462;28;20393;-84
2021/05/10 02:01:32;;;;;;;4.78;1.80;;;;;;;;;;5014317;28;20033;-84
2021/05/10 02:03:59;;;;;;;5.20;1.80;;;;;;;;;;5011528;28;20135;-84
2021/05/10 02:06:25;;;;;;;3.03;1.77;;;;;;;;;;5010458;28;20094;-84
2021/05/10 02:08:50;;;;;;;2.95;1.60;;;;;;;;;;5016505;28;20021;-84
2021/05/10 02:11:15;;;;;;;3.40;1.50;;;;;;;;;;5030717;28;20173;-84
2021/05/10 02:13:40;;;;;;;6.47;1.30;;;;;;;;;;5013171;28;20018;-84
2021/05/10 02:16:05;;;;;;;2.00;1.30;;;;;;;;;;5011691;28;20017;-84
2021/05/10 02:18:33;;;;;;;5.13;1.00;;;;;;;;;;5018566;28;20065;-84
2021/05/10 02:20:58;;;;;;;3.15;1.33;;;;;;;;;;5016994;28;20375;-85
2021/05/10 02:23:25;;;;;;;3.03;1.25;;;;;;;;;;5015914;28;20018;-84
2021/05/10 02:25:52;;;;;;;1.55;1.15;;;;;;;;;;5025243;28;20022;-84
2021/05/10 02:28:18;;;;;;;5.05;1.20;;;;;;;;;;5013393;28;20017;-85
2021/05/10 02:30:43;;;;;;;2.40;1.30;;;;;;;;;;5013660;28;20022;-84
2021/05/10 02:33:16;;;;;;;5.22;1.25;;;;;;;;;;5011918;28;20028;-84
2021/05/10 02:35:41;;;;;;;4.63;1.20;;;;;;;;;;5019463;28;20060;-84
2021/05/10 02:38:07;;;;;;;4.10;1.23;;;;;;;;;;5016379;28;20057;-84
2021/05/10 02:40:33;;;;;;;3.70;1.35;;;;;;;;;;5012359;28;20209;-84
2021/05/10 02:42:58;;;;;;;2.03;1.05;;;;;;;;;;5021979;28;20037;-84
2021/05/10 02:45:23;;;;;;;1.95;1.20;;;;;;;;;;5017442;28;20049;-84
2021/05/10 02:47:49;;;;;;;5.22;1.55;;;;;;;;;;5012094;28;20029;-84
2021/05/10 02:50:17;;;;;;;4.65;1.02;;;;;;;;;;5021778;28;20021;-84
2021/05/10 02:52:42;;;;;;;5.82;1.50;;;;;;;;;;5012819;28;20033;-84
2021/05/10 02:55:08;;;;;;;2.65;1.10;;;;;;;;;;5019888;28;20037;-84
2021/05/10 02:57:34;;;;;;;3.42;1.10;;;;;;;;;;5018837;28;20025;-83
2021/05/10 02:59:59;;;;;;;5.28;1.17;;;;;;;;;;5021887;28;20032;-84
2021/05/10 03:02:24;;;;;;;2.75;1.00;;;;;;;;;;5018364;28;20025;-84
2021/05/10 03:04:49;;;;;;;2.70;1.17;;;;;;;;;;5015352;28;20029;-84
2021/05/10 03:07:14;;;;;;;5.15;1.30;;;;;;;;;;5020217;28;20033;-84
2021/05/10 03:09:40;;;;;;;6.53;1.30;;;;;;;;;;5014664;28;20104;-84
2021/05/10 03:12:05;;;;;;;6.63;1.30;;;;;;;;;;5008763;28;20018;-84
2021/05/10 03:14:31;;;;;;;8.32;1.27;;;;;;;;;;5014070;28;20499;-84
2021/05/10 03:16:56;;;;;;;4.85;1.20;;;;;;;;;;5024008;28;20461;-84
2021/05/10 03:19:21;;;;;;;4.65;1.60;;;;;;;;;;5026142;28;20483;-84
2021/05/10 03:21:46;;;;;;;3.75;1.40;;;;;;;;;;5008449;28;20034;-84
2021/05/10 03:24:12;;;;;;;2.15;1.20;;;;;;;;;;5016320;28;20079;-84
2021/05/10 03:26:38;;;;;;;5.80;1.80;;;;;;;;;;5009698;28;20052;-84
2021/05/10 03:29:04;;;;;;;14.88;1.63;;;;;;;;;;5020234;28;20030;-84
2021/05/10 03:31:29;;;;;;;10.57;1.35;;;;;;;;;;5011607;28;20032;-84
2021/05/10 03:33:54;;;;;;;12.70;1.88;;;;;;;;;;5013027;28;20402;-84
2021/05/10 03:36:19;;;;;;;4.05;1.58;;;;;;;;;;5018107;28;20125;-84
2021/05/10 03:38:45;;;;;;;14.90;1.83;;;;;;;;;;5015931;28;20025;-84
2021/05/10 03:41:10;;;;;;;257.15;9.77;;;;;;;;;;5024675;28;20034;-84
2021/05/10 03:43:35;;;;;;;145.07;5.68;;;;;;;;;;5012465;28;20435;-84
2021/05/10 03:46:00;;;;;;;93.07;5.25;;;;;;;;;;5017936;28;20022;-84
2021/05/10 03:48:25;;;;;;;180.60;7.13;;;;;;;;;;5011269;28;20163;-84
2021/05/10 03:50:51;;;;;;;152.32;7.00;;;;;;;;;;5016081;28;20024;-84
2021/05/10 03:53:16;;;;;;;139.18;4.55;;;;;;;;;;5009045;28;20018;-84
2021/05/10 03:55:41;;;;;;;9.90;0.93;;;;;;;;;;5016985;28;20060;-84
2021/05/10 03:58:06;;;;;;;5.45;1.00;;;;;;;;;;5015347;28;20091;-84
2021/05/10 04:00:32;;;;;;;7.88;1.00;;;;;;;;;;5023074;28;20439;-84
2021/05/10 04:02:59;;;;;;;13.25;1.00;;;;;;;;;;5010443;28;20018;-84
2021/05/10 04:08:24;;;;;;;0.85;0.50;;;;;;;;;;5020111;28;20124;-84
2021/05/10 04:11:07;;;;;;;13.82;1.00;;;;;;;;;;5008286;28;20075;-84
2021/05/10 04:13:43;;;;;;;3.15;0.65;;;;;;;;;;5020473;28;20375;-84
2021/05/10 04:16:08;;;;;;;1.25;0.50;;;;;;;;;;5008423;28;20030;-84
2021/05/10 04:18:33;;;;;;;4.72;0.57;;;;;;;;;;5017031;28;20372;-84
2021/05/10 04:20:59;;;;;;;0.93;0.70;;;;;;;;;;5022604;28;20029;-84
2021/05/10 04:23:24;;;;;;;1.52;0.50;;;;;;;;;;5017681;28;20473;-84
2021/05/10 04:25:51;;;;;;;2.00;0.60;;;;;;;;;;5017604;28;20076;-84
2021/05/10 04:28:16;;;;;;;2.08;0.50;;;;;;;;;;5012708;28;20116;-84
2021/05/10 04:30:41;;;;;;;2.05;0.60;;;;;;;;;;5022359;28;20143;-84
2021/05/10 04:33:07;;;;;;;3.15;0.73;;;;;;;;;;5020913;28;20176;-84
2021/05/10 04:35:33;;;;;;;1.88;0.60;;;;;;;;;;5021021;28;20045;-84
2021/05/10 04:37:59;;;;;;;1.95;0.60;;;;;;;;;;5021859;28;20025;-84
2021/05/10 04:40:24;;;;;;;1.15;0.60;;;;;;;;;;5021147;28;20032;-84
2021/05/10 04:42:49;;;;;;;2.53;0.50;;;;;;;;;;5010864;28;20440;-84
2021/05/10 04:45:14;;;;;;;1.67;0.50;;;;;;;;;;5010805;28;20036;-84
2021/05/10 04:47:41;;;;;;;1.77;0.63;;;;;;;;;;5019261;28;20025;-84
2021/05/10 04:50:09;;;;;;;1.27;0.55;;;;;;;;;;5022057;28;20169;-84
2021/05/10 04:52:34;;;;;;;0.85;0.50;;;;;;;;;;5022503;28;20033;-84
2021/05/10 04:54:59;;;;;;;1.83;0.77;;;;;;;;;;5019834;28;20031;-84
2021/05/10 04:57:25;;;;;;;1.20;0.60;;;;;;;;;;5025031;28;20104;-84
2021/05/10 04:59:50;;;;;;;3.50;0.60;;;;;;;;;;5013082;28;20021;-84
2021/05/10 05:02:15;;;;;;;1.40;0.80;;;;;;;;;;5021392;28;20025;-84
2021/05/10 05:04:40;;;;;;;2.55;0.70;;;;;;;;;;5018083;28;20470;-84
2021/05/10 05:07:05;;;;;;;1.75;0.50;;;;;;;;;;5016461;28;20021;-84
2021/05/10 05:09:31;;;;;;;0.50;0.40;;;;;;;;;;5020986;28;20135;-84
2021/05/10 05:11:56;;;;;;;2.83;0.70;;;;;;;;;;5017808;28;20079;-84
2021/05/10 05:14:21;;;;;;;2.08;0.70;;;;;;;;;;5011872;28;20054;-84
2021/05/10 05:16:46;;;;;;;0.93;0.60;;;;;;;;;;5024108;28;20036;-84
2021/05/10 05:19:11;;;;;;;1.85;0.90;;;;;;;;;;5023802;28;20526;-84
2021/05/10 05:21:36;;;;;;;1.20;0.70;;;;;;;;;;5024881;28;20063;-84
2021/05/10 05:24:02;;;;;;;1.15;0.65;;;;;;;;;;5015312;28;20021;-84
2021/05/10 05:26:27;;;;;;;2.53;0.90;;;;;;;;;;5019752;28;20014;-84
2021/05/10 05:28:52;;;;;;;3.20;0.90;;;;;;;;;;5016392;28;20030;-84
2021/05/10 05:31:17;;;;;;;1.42;0.68;;;;;;;;;;5015306;28;20021;-84
2021/05/10 05:33:43;;;;;;;4.05;0.73;;;;;;;;;;5013128;28;20033;-84
2021/05/10 05:36:09;;;;;;;1.98;0.85;;;;;;;;;;5015416;28;20464;-84
2021/05/10 05:38:36;;;;;;;2.50;0.90;;;;;;;;;;5017033;28;20025;-85
2021/05/10 05:41:02;;;;;;;1.73;0.73;;;;;;;;;;5009985;28;20105;-84
2021/05/10 05:43:27;;;;;;;1.17;0.82;;;;;;;;;;5009857;28;20068;-84
2021/05/10 05:45:52;;;;;;;7.45;1.10;;;;;;;;;;5017355;28;20034;-84
2021/05/10 05:48:18;;;;;;;1.15;0.77;;;;;;;;;;5025301;28;20017;-84
2021/05/10 05:50:43;;;;;;;2.42;1.00;;;;;;;;;;5022037;28;20022;-84
2021/05/10 05:53:09;;;;;;;3.17;0.90;;;;;;;;;;5025417;28;20017;-84
2021/05/10 05:55:34;;;;;;;5.65;1.20;;;;;;;;;;5017501;28;20025;-85
2021/05/10 05:58:00;;;;;;;2.00;1.00;;;;;;;;;;5011630;28;20025;-84
2021/05/10 06:00:25;;;;;;;4.18;1.73;;;;;;;;;;5019263;28;20557;-84
2021/05/10 06:02:51;;;;;;;3.17;1.10;;;;;;;;;;5008386;28;20033;-85
2021/05/10 06:05:16;;;;;;;3.97;1.15;;;;;;;;;;5015015;28;20033;-85
2021/05/10 06:07:42;;;;;;;1.63;1.02;;;;;;;;;;5010578;28;20025;-85
2021/05/10 06:10:08;;;;;;;2.13;1.10;;;;;;;;;;5013108;28;20147;-85
2021/05/10 06:12:33;;;;;;;5.85;1.20;;;;;;;;;;5016180;28;20014;-85
2021/05/10 06:14:59;;;;;;;4.47;1.23;;;;;;;;;;5040157;28;20041;-85
2021/05/10 06:17:24;;;;;;;2.80;0.77;;;;;;;;;;5013586;28;20037;-85
2021/05/10 06:19:49;;;;;;;2.72;1.00;;;;;;;;;;5012858;28;20026;-85
2021/05/10 06:22:15;;;;;;;4.88;1.10;;;;;;;;;;5006562;28;20381;-85
2021/05/10 06:24:40;;;;;;;4.95;0.90;;;;;;;;;;5021542;28;20026;-85
2021/05/10 06:27:05;;;;;;;2.63;1.00;;;;;;;;;;5019109;28;20490;-85
2021/05/10 06:29:31;;;;;;;1.88;1.20;;;;;;;;;;5022072;28;20026;-85
2021/05/10 06:31:56;;;;;;;3.78;1.10;;;;;;;;;;5034827;28;20022;-85
2021/05/10 06:34:21;;;;;;;3.78;1.20;;;;;;;;;;5020209;28;20334;-85
2021/05/10 06:36:47;;;;;;;3.88;1.00;;;;;;;;;;5052816;28;20055;-85
2021/05/10 06:39:12;;;;;;;4.65;1.30;;;;;;;;;;5022617;28;20486;-85
2021/05/10 06:41:37;;;;;;;3.90;1.10;;;;;;;;;;5050698;28;20024;-85
2021/05/10 06:44:02;;;;;;;4.10;1.15;;;;;;;;;;5028069;28;20029;-85
2021/05/10 06:46:27;;;;;;;2.45;1.35;;;;;;;;;;5024267;28;20076;-85
2021/05/10 06:48:53;;;;;;;2.67;1.15;;;;;;;;;;5032612;28;20403;-85
2021/05/10 06:51:18;;;;;;;1.75;1.20;;;;;;;;;;5032446;28;20030;-85
2021/05/10 06:53:43;;;;;;;3.65;1.23;;;;;;;;;;5063756;28;20015;-85
2021/05/10 06:56:08;;;;;;;3.10;1.17;;;;;;;;;;5037054;28;20029;-86
2021/05/10 06:58:34;;;;;;;5.32;1.40;;;;;;;;;;5035068;28;20022;-85
2021/05/10 07:00:59;;;;;;;2.35;1.30;;;;;;;;;;5017745;28;20098;-85
2021/05/10 07:03:24;;;;;;;3.30;1.30;;;;;;;;;;5039447;28;20028;-85
2021/05/10 07:05:49;;;;;;;5.13;1.45;;;;;;;;;;5038838;28;20053;-85
2021/05/10 07:08:15;;;;;;;8.35;1.30;;;;;;;;;;5055965;28;20046;-85
2021/05/10 07:10:44;;;;;;;3.58;1.30;;;;;;;;;;5042707;28;20117;-85
2021/05/10 07:13:09;;;;;;;3.70;1.48;;;;;;;;;;5026952;28;20045;-84
2021/05/10 07:15:35;;;;;;;3.67;1.40;;;;;;;;;;5056994;28;20043;-84
2021/05/10 07:18:04;;;;;;;4.45;1.23;;;;;;;;;;5058538;28;20038;-84
2021/05/10 07:20:29;;;;;;;3.10;1.48;;;;;;;;;;5023178;28;20037;-84
2021/05/10 07:22:55;;;;;;;3.97;1.30;;;;;;;;;;5008415;28;20618;-83
2021/05/10 07:25:20;;;;;;;4.43;1.10;;;;;;;;;;5017850;28;20080;-83
2021/05/10 07:27:46;;;;;;;3.78;1.10;;;;;;;;;;5012519;28;20010;-84
2021/05/10 07:30:12;;;;;;;1.75;0.85;;;;;;;;;;5050490;28;20066;-84
2021/05/10 07:32:37;;;;;;;2.50;1.00;;;;;;;;;;5016559;28;20415;-84
2021/05/10 07:35:02;;;;;;;2.25;0.77;;;;;;;;;;5014584;28;20025;-84
2021/05/10 07:37:27;;;;;;;1.50;1.10;;;;;;;;;;5011610;28;20026;-83
2021/05/10 07:39:53;;;;;;;1.77;1.23;;;;;;;;;;5018030;28;20405;-84
2021/05/10 07:42:18;;;;;;;4.20;1.17;;;;;;;;;;5007928;28;20078;-83
2021/05/10 07:44:43;;;;;;;4.47;1.17;;;;;;;;;;5018082;28;20112;-83
2021/05/10 07:47:08;;;;;;;1.73;0.70;;;;;;;;;;5013498;28;20428;-83
2021/05/10 07:49:33;;;;;;;0.63;0.50;;;;;;;;;;5018912;28;20026;-84
2021/05/10 07:51:58;;;;;;;1.48;0.82;;;;;;;;;;5018044;28;20017;-84
2021/05/10 07:54:24;;;;;;;7.00;1.27;;;;;;;;;;5024558;28;20104;-83
2021/05/10 07:56:49;;;;;;;3.17;1.20;;;;;;;;;;5026733;28;20046;-84
2021/05/10 07:59:14;;;;;;;1.77;1.02;;;;;;;;;;5047096;28;20017;-84
2021/05/10 08:01:39;;;;;;;1.50;0.80;;;;;;;;;;5011913;28;20122;-85
2021/05/10 08:04:05;;;;;;;4.13;1.30;;;;;;;;;;5017283;28;20017;-85
2021/05/10 08:06:30;;;;;;;1.55;0.95;;;;;;;;;;5016240;28;20395;-85
2021/05/10 08:08:55;;;;;;;3.22;1.33;;;;;;;;;;5022546;28;20047;-85
2021/05/10 08:11:20;;;;;;;3.03;1.23;;;;;;;;;;5022220;28;20022;-84
2021/05/10 08:13:45;;;;;;;2.05;1.30;;;;;;;;;;5021677;28;20418;-85
2021/05/10 08:16:14;;;;;;;2.50;1.13;;;;;;;;;;5024558;28;20504;-85
2021/05/10 08:18:42;;;;;;;5.60;1.10;;;;;;;;;;5042373;28;20064;-85
2021/05/10 08:21:07;;;;;;;4.10;1.40;;;;;;;;;;5021390;28;20101;-86
2021/05/10 08:23:32;;;;;;;2.30;1.05;;;;;;;;;;5019513;28;20307;-86
2021/05/10 08:25:57;;;;;;;2.95;1.10;;;;;;;;;;5023489;28;20141;-85
2021/05/10 08:28:22;;;;;;;4.95;1.38;;;;;;;;;;5014162;28;20033;-85
2021/05/10 08:30:48;;;;;;;2.60;1.30;;;;;;;;;;5037531;28;20022;-85
2021/05/10 08:33:13;;;;;;;3.83;1.13;;;;;;;;;;5014157;28;20468;-86
2021/05/10 08:35:38;;;;;;;2.45;0.98;;;;;;;;;;5036589;28;20022;-85
2021/05/10 08:38:04;;;;;;;3.80;1.33;;;;;;;;;;5032543;28;20022;-85
2021/05/10 08:40:29;;;;;;;1.30;0.60;;;;;;;;;;5020194;28;20029;-85
2021/05/10 08:42:55;;;;;;;2.25;1.00;;;;;;;;;;5012912;28;20093;-85
2021/05/10 08:45:21;;;;;;;2.63;1.10;;;;;;;;;;5017683;28;20033;-85
2021/05/10 08:47:50;;;;;;;2.67;1.02;;;;;;;;;;5020714;28;20014;-85
2021/05/10 08:50:15;;;;;;;3.33;0.90;;;;;;;;;;5018541;28;20025;-85
2021/05/10 08:52:42;;;;;;;3.25;1.40;;;;;;;;;;5020853;28;20504;-85
2021/05/10 08:55:07;;;;;;;2.60;1.00;;;;;;;;;;5017990;28;20054;-85
2021/05/10 08:57:33;;;;;;;2.83;1.10;;;;;;;;;;5017994;28;20496;-85
2021/05/10 08:59:58;;;;;;;2.28;1.15;;;;;;;;;;5011154;28;20021;-85
2021/05/10 09:02:31;;;;;;;3.25;1.05;;;;;;;;;;5018034;28;20105;-85
2021/05/10 09:04:56;;;;;;;;;;;;;;;;;;5025078;28;20018;-85
2021/05/10 09:07:23;;;;;;;3.60;1.60;;;;;;;;;;5025602;28;19916;-85
2021/05/10 09:10:10;;;;;;;3.15;1.23;;;;;;;;;;5023624;28;20017;-85
2021/05/10 09:12:45;;;;;;;7.90;1.05;;;;;;;;;;5017495;28;20037;-85
2021/05/10 09:15:19;;;;;;;3.92;1.00;;;;;;;;;;5010047;28;20022;-85
2021/05/10 09:17:50;;;;;;;2.28;1.13;;;;;;;;;;5017606;28;20030;-85
2021/05/10 09:20:17;;;;;;;1.07;0.80;;;;;;;;;;5022294;28;20135;-85
2021/05/10 09:22:49;;;;;;;2.13;1.35;;;;;;;;;;5014478;28;20271;-85
2021/05/10 09:25:15;;;;;;;2.10;1.48;;;;;;;;;;5093750;27;20112;-85
2021/05/10 09:27:41;;;;;;;1.98;1.35;;;;;;;;;;5011812;28;20048;-85
2021/05/10 09:30:36;;;;;;;4.57;1.73;;;;;;;;;;5009866;28;20042;-85
2021/05/10 09:33:01;;;;;;;4.07;1.45;;;;;;;;;;5002775;28;20037;-84
2021/05/10 09:35:28;;;;;;;4.05;1.20;;;;;;;;;;5013756;28;20460;-85
2021/05/10 09:37:54;;;;;;;2.95;1.30;;;;;;;;;;5015518;28;20110;-85
2021/05/10 09:40:20;;;;;;;4.32;1.30;;;;;;;;;;5028258;28;20034;-85
2021/05/10 09:42:52;;;;;;;6.00;1.30;;;;;;;;;;5025580;28;20492;-85
2021/05/10 09:45:37;;;;;;;5.38;1.33;;;;;;;;;;5014800;28;20432;-85
2021/05/10 09:48:03;;;;;;;2.80;1.25;;;;;;;;;;5042986;27;20061;-85
2021/05/10 09:50:48;;;;;;;8.98;1.80;;;;;;;;;;5024906;28;20054;-85
2021/05/10 09:53:17;;;;;;;3.20;1.80;;;;;;;;;;5035544;28;20075;-85
2021/05/10 09:55:53;;;;;;;7.82;1.63;;;;;;;;;;5018393;28;20042;-85
2021/05/10 09:58:19;;;;;;;6.60;1.50;;;;;;;;;;5015360;28;20392;-85
2021/05/10 10:00:45;;;;;;;4.25;1.48;;;;;;;;;;5061794;28;20018;-85
2021/05/10 10:03:24;;;;;;;8.25;1.35;;;;;;;;;;5025880;28;20121;-85
2021/05/10 10:05:51;;;;;;;7.50;1.83;;;;;;;;;;5031747;28;20119;-85
2021/05/10 10:08:17;;;;;;;8.48;2.00;;;;;;;;;;5017651;28;20022;-85
2021/05/10 10:10:42;;;;;;;5.85;1.75;;;;;;;;;;5018760;28;20792;-84
2021/05/10 10:13:07;;;;;;;3.00;0.93;;;;;;;;;;5021395;28;20022;-84
2021/05/10 10:15:32;;;;;;;6.68;1.33;;;;;;;;;;5015185;28;20468;-84
2021/05/10 10:18:00;;;;;;;5.00;1.58;;;;;;;;;;5027248;28;20082;-85
2021/05/10 10:20:25;;;;;;;5.20;1.70;;;;;;;;;;5014180;28;20091;-84
2021/05/10 10:22:50;;;;;;;6.47;1.75;;;;;;;;;;5030943;28;20015;-84
2021/05/10 10:25:16;;;;;;;7.75;1.60;;;;;;;;;;5025917;28;20061;-84
2021/05/10 10:27:41;;;;;;;7.13;2.42;;;;;;;;;;5020561;28;20028;-84
2021/05/10 10:30:07;;;;;;;4.53;1.58;;;;;;;;;;5014006;28;20032;-84
2021/05/10 10:32:33;;;;;;;12.93;1.73;;;;;;;;;;5064157;28;20052;-84
2021/05/10 10:34:58;;;;;;;6.78;1.95;;;;;;;;;;5043993;28;20035;-84
2021/05/10 10:37:24;;;;;;;8.52;1.98;;;;;;;;;;5040918;28;20026;-84
2021/05/10 10:39:51;;;;;;;12.82;2.00;;;;;;;;;;5020822;28;20021;-84
2021/05/10 10:42:24;;;;;;;4.22;1.90;;;;;;;;;;5009601;28;20128;-84
2021/05/10 10:44:56;;;;;;;4.07;1.80;;;;;;;;;;5018498;28;20437;-84
2021/05/10 10:47:21;;;;;;;;;;;;;;;;;;5020386;28;20022;-85
2021/05/10 10:49:46;;;;;;;6.78;2.20;;;;;;;;;;5015750;28;19917;-83
2021/05/10 10:52:16;;;;;;;6.30;1.75;;;;;;;;;;5045322;28;20419;-84
2021/05/10 10:54:41;;;;;;;12.18;1.83;;;;;;;;;;5009805;28;20022;-84
2021/05/10 10:57:06;;;;;;;6.25;1.50;;;;;;;;;;5009626;28;20022;-84
2021/05/10 10:59:36;;;;;;;9.23;2.05;;;;;;;;;;5014057;28;20376;-84
2021/05/10 11:02:15;;;;;;;5.95;1.60;;;;;;;;;;5018264;28;20026;-84
2021/05/10 11:04:40;;;;;;;8.45;2.47;;;;;;;;;;5010115;28;20465;-84
2021/05/10 11:07:06;;;;;;;3.75;1.90;;;;;;;;;;5014700;28;20021;-84
2021/05/10 11:09:46;;;;;;;25.42;3.13;;;;;;;;;;5013427;28;20025;-84
2021/05/10 11:12:30;;;;;;;4.22;1.98;;;;;;;;;;5012530;28;20448;-84
2021/05/10 11:14:56;;;;;;;5.50;1.85;;;;;;;;;;5015366;28;20022;-84
2021/05/10 11:17:40;;;;;;;6.40;1.63;;;;;;;;;;5032542;28;20035;-84
2021/05/10 11:20:09;;;;;;;8.55;1.42;;;;;;;;;;5010177;28;20022;-84
2021/05/10 11:22:38;;;;;;;5.95;1.60;;;;;;;;;;5013535;28;20025;-84
2021/05/10 11:25:29;;;;;;;6.65;1.38;;;;;;;;;;5031575;28;20467;-84
2021/05/10 11:27:54;;;;;;;27.00;2.08;;;;;;;;;;5019278;28;20018;-84
2021/05/10 11:30:40;;;;;;;14.10;1.95;;;;;;;;;;5019245;28;20085;-85
2021/05/10 11:33:05;;;;;;;6.82;1.25;;;;;;;;;;5012579;28;20022;-84
2021/05/10 11:35:30;;;;;;;4.10;1.40;;;;;;;;;;5022153;28;20479;-83
2021/05/10 11:38:00;;;;;;;6.07;1.20;;;;;;;;;;5016682;28;20029;-84
2021/05/10 11:40:25;;;;;;;6.78;1.17;;;;;;;;;;5013869;28;20044;-84
2021/05/10 11:42:52;;;;;;;8.10;0.93;;;;;;;;;;5020450;28;20025;-84
2021/05/10 11:45:17;;;;;;;6.47;1.08;;;;;;;;;;5018140;28;20022;-84
2021/05/10 11:47:46;;;;;;;5.43;0.95;;;;;;;;;;5012254;28;20377;-84
2021/05/10 11:50:11;;;;;;;4.80;1.15;;;;;;;;;;5041719;28;20012;-84
2021/05/10 11:52:36;;;;;;;9.73;0.80;;;;;;;;;;5053489;28;20403;-84
2021/05/10 11:55:03;;;;;;;7.05;1.13;;;;;;;;;;5025843;28;20033;-83
2021/05/10 11:57:33;;;;;;;7.72;0.93;;;;;;;;;;5026755;28;20029;-84
2021/05/10 12:00:12;;;;;;;1.58;0.45;;;;;;;;;;5025019;28;20028;-84
2021/05/10 12:02:40;;;;;;;8.30;1.15;;;;;;;;;;5019509;28;20055;-84
2021/05/10 12:05:06;;;;;;;5.45;0.73;;;;;;;;;;5015795;28;20028;-84
2021/05/10 12:07:33;;;;;;;7.85;0.80;;;;;;;;;;5013653;28;20503;-84
2021/05/10 12:10:03;;;;;;;7.25;0.90;;;;;;;;;;5023271;28;20022;-84
2021/05/10 12:12:28;;;;;;;6.63;1.05;;;;;;;;;;5018802;28;20024;-84
2021/05/10 12:14:55;;;;;;;3.20;0.80;;;;;;;;;;5040086;28;20038;-84
2021/05/10 12:17:24;;;;;;;3.35;0.73;;;;;;;;;;5030557;28;20022;-84
2021/05/10 12:19:54;;;;;;;1.48;0.60;;;;;;;;;;5020492;28;20033;-84
2021/05/10 12:22:20;;;;;;;6.47;0.50;;;;;;;;;;5010956;28;20022;-85
2021/05/10 12:24:54;;;;;;;5.18;0.77;;;;;;;;;;5024970;28;20029;-84
2021/05/10 12:27:20;;;;;;;16.88;1.30;;;;;;;;;;5020258;28;20109;-84
2021/05/10 12:29:45;;;;;;;19.80;1.20;;;;;;;;;;5019698;28;20086;-84
2021/05/10 12:32:10;;;;;;;11.05;0.85;;;;;;;;;;5032329;28;20730;-83
2021/05/10 12:34:36;;;;;;;34.03;1.20;;;;;;;;;;5018870;28;20018;-84
2021/05/10 12:37:01;;;;;;;11.15;1.27;;;;;;;;;;5022429;28;20064;-84
2021/05/10 12:39:28;;;;;;;35.00;1.83;;;;;;;;;;5028978;28;20095;-84
2021/05/10 12:42:10;;;;;;;10.48;0.90;;;;;;;;;;5024916;28;20033;-84
2021/05/10 12:44:35;;;;;;;20.80;0.90;;;;;;;;;;5023822;28;20026;-84
2021/05/10 12:47:01;;;;;;;16.35;0.80;;;;;;;;;;5002251;28;20025;-83
2021/05/10 12:49:26;;;;;;;8.68;1.15;;;;;;;;;;4994540;28;20022;-84
2021/05/10 12:51:53;;;;;;;4.53;0.80;;;;;;;;;;5026255;28;20114;-85
2021/05/10 12:54:18;;;;;;;6.70;1.05;;;;;;;;;;5017864;28;20084;-84
2021/05/10 12:56:44;;;;;;;4.82;0.80;;;;;;;;;;5013591;28;20022;-84
2021/05/10 12:59:09;;;;;;;8.05;1.33;;;;;;;;;;5028365;28;20023;-84
2021/05/10 13:01:35;;;;;;;7.28;1.17;;;;;;;;;;5065888;28;20029;-84
2021/05/10 13:04:03;;;;;;;6.03;0.70;;;;;;;;;;5051641;28;20512;-84
2021/05/10 13:06:28;;;;;;;6.35;0.75;;;;;;;;;;5036453;28;20021;-85
2021/05/10 13:08:54;;;;;;;5.90;0.88;;;;;;;;;;5052584;28;20021;-85
2021/05/10 13:11:22;;;;;;;5.88;0.45;;;;;;;;;;5035931;28;20247;-86
2021/05/10 13:13:50;;;;;;;3.95;0.85;;;;;;;;;;5044789;28;20087;-85
2021/05/10 13:16:19;;;;;;;3.58;0.70;;;;;;;;;;5033130;28;20034;-85
2021/05/10 13:19:19;;;;;;;19.30;1.23;;;;;;;;;;5042886;28;20029;-85
2021/05/10 13:32:14;;;;;;;6.05;0.90;;;;;;;;;;5031052;28;20038;-85
2021/05/10 13:34:49;;;;;;;8.60;1.42;;;;;;;;;;5016620;28;20059;-86
2021/05/10 13:37:14;;;;;;;15.55;1.20;;;;;;;;;;5013465;28;20018;-85
2021/05/10 13:39:40;;;;;;;7.07;0.65;;;;;;;;;;5025552;28;20025;-85
2021/05/10 13:42:12;;;;;;;8.27;0.82;;;;;;;;;;5030427;28;20472;-85
2021/05/10 13:44:38;;;;;;;4.63;1.52;;;;;;;;;;5014037;28;20018;-86
2021/05/10 13:47:03;;;;;;;3.78;0.60;;;;;;;;;;5022202;28;20028;-86
2021/05/10 13:49:28;;;;;;;11.50;1.15;;;;;;;;;;5009552;28;20018;-86
2021/05/10 13:51:54;;;;;;;8.05;1.17;;;;;;;;;;5010073;28;20024;-86
2021/05/10 13:54:24;;;;;;;46.58;2.85;;;;;;;;;;5018525;28;20526;-86
2021/05/10 13:56:50;;;;;;;21.85;1.15;;;;;;;;;;5020777;28;20453;-85
2021/05/10 13:59:16;;;;;;;17.92;1.40;;;;;;;;;;5016814;28;20022;-85
2021/05/10 14:01:41;;;;;;;9.38;0.55;;;;;;;;;;5014910;28;20014;-85
2021/05/10 14:04:06;;;;;;;8.52;1.10;;;;;;;;;;5010120;28;20030;-85
2021/05/10 14:06:32;;;;;;;8.82;1.00;;;;;;;;;;5012767;28;20508;-85
2021/05/10 14:08:57;;;;;;;23.95;1.88;;;;;;;;;;5024508;28;20097;-86
2021/05/10 14:11:22;;;;;;;11.40;1.00;;;;;;;;;;5013018;28;20155;-85
2021/05/10 14:13:48;;;;;;;19.10;1.42;;;;;;;;;;5015704;28;20025;-85
2021/05/10 14:16:13;;;;;;;19.17;1.10;;;;;;;;;;5016021;28;20333;-85
2021/05/10 14:18:46;;;;;;;14.13;1.27;;;;;;;;;;5018910;28;20030;-85
2021/05/10 14:23:55;;;;;;;5.60;0.93;;;;;;;;;;5012279;28;20100;-85
2021/05/10 14:26:20;;;;;;;5.18;1.00;;;;;;;;;;5030808;28;20030;-85
2021/05/10 14:28:45;;;;;;;1.50;0.65;;;;;;;;;;5022443;28;20045;-85
2021/05/10 14:31:12;;;;;;;4.95;0.95;;;;;;;;;;5007858;28;20769;-86
2021/05/10 14:33:37;;;;;;;4.15;0.73;;;;;;;;;;5029958;28;20368;-86
2021/05/10 14:36:03;;;;;;;1.48;0.30;;;;;;;;;;5018344;28;20024;-85
2021/05/10 14:38:28;;;;;;;1.02;0.45;;;;;;;;;;5018497;28;20432;-85
2021/05/10 14:40:54;;;;;;;8.15;0.68;;;;;;;;;;5017778;28;20028;-86
2021/05/10 14:43:19;;;;;;;6.88;0.63;;;;;;;;;;5015389;28;20465;-87
2021/05/10 14:45:45;;;;;;;4.25;0.70;;;;;;;;;;5026338;28;20052;-86
2021/05/10 14:48:11;;;;;;;5.57;0.85;;;;;;;;;;5021189;28;20062;-89
2021/05/10 14:50:37;;;;;;;12.60;0.70;;;;;;;;;;5030123;28;20024;-89
2021/05/10 14:53:02;;;;;;;11.32;0.90;;;;;;;;;;5031168;28;20018;-90
2021/05/10 14:55:27;;;;;;;2.20;0.55;;;;;;;;;;5055893;28;20027;-90